Time;durP1;ratioP1;P1;durP2;ratioP2;P2;SDS_P1;SDS_P2;PMS_P1;PMS_P2;Temp;Humidity;BMP_temperature;BMP_pressure;BME280_temperature;BME280_humidity;BME280_pressure;Samples;Min_cycle;Max_cycle;Signal;HPM_P1;HPM_P2
2024/01/14 00:01:18;;;;;;;10.65;6.65;;;;;;;-1.63;80.88;98216.78;5073896;28;20176;-57
2024/01/14 00:03:44;;;;;;;8.80;6.03;;;;;;;-1.35;81.00;98271.06;5073909;28;20184;-57
2024/01/14 00:06:09;;;;;;;9.88;6.32;;;;;;;-1.21;80.39;98271.56;5051120;28;20194;-57
2024/01/14 00:08:35;;;;;;;8.80;6.18;;;;;;;-1.31;80.88;98245.59;5051300;28;20755;-56
2024/01/14 00:11:00;;;;;;;9.52;6.97;;;;;;;-1.51;80.36;98214.81;5051291;28;20221;-57
2024/01/14 00:13:26;;;;;;;10.93;6.50;;;;;;;-1.51;79.35;98209.72;5051339;28;20174;-57
2024/01/14 00:15:51;;;;;;;8.35;6.28;;;;;;;-1.30;79.15;98259.13;5051180;28;20240;-57
2024/01/14 00:18:17;;;;;;;11.63;6.78;;;;;;;-1.32;79.49;98254.06;5051098;28;20232;-57
2024/01/14 00:20:42;;;;;;;9.50;6.75;;;;;;;-1.38;80.04;98233.06;5050130;28;20193;-57
2024/01/14 00:23:08;;;;;;;10.27;7.13;;;;;;;-1.48;80.02;98234.16;5011256;28;20278;-57
2024/01/14 00:25:34;;;;;;;11.82;6.50;;;;;;;-1.51;80.37;98242.72;5011319;28;20211;-57
2024/01/14 00:28:00;;;;;;;9.48;6.22;;;;;;;-1.75;80.89;98191.72;5011341;28;20190;-57
2024/01/14 00:30:25;;;;;;;10.68;6.53;;;;;;;-1.37;80.64;98239.81;5011290;28;20186;-57
2024/01/14 00:32:50;;;;;;;11.38;6.78;;;;;;;-1.26;80.33;98248.84;5011161;28;20195;-57
2024/01/14 00:35:16;;;;;;;10.23;6.50;;;;;;;-1.61;79.85;98187.16;5011079;28;20210;-57
2024/01/14 00:37:41;;;;;;;11.10;6.75;;;;;;;-1.05;79.30;98257.63;5040567;28;20186;-57
2024/01/14 00:40:08;;;;;;;9.05;7.30;;;;;;;-1.06;77.83;98238.22;5050786;28;20181;-57
2024/01/14 00:42:34;;;;;;;9.45;6.72;;;;;;;-1.41;78.29;98172.28;5050730;28;20664;-57
2024/01/14 00:44:59;;;;;;;9.90;6.85;;;;;;;-1.09;78.57;98228.13;5050722;28;20224;-57
2024/01/14 00:47:24;;;;;;;10.23;7.30;;;;;;;-1.53;79.56;98154.84;5050711;28;20181;-57
2024/01/14 00:49:50;;;;;;;9.30;6.40;;;;;;;-0.86;79.96;98241.03;5050518;28;20594;-57
2024/01/14 00:52:15;;;;;;;9.32;5.82;;;;;;;-0.88;78.57;98222.50;5050605;28;20554;-57
2024/01/14 00:54:42;;;;;;;9.25;6.80;;;;;;;-1.48;78.75;98153.84;5066727;28;20192;-56
2024/01/14 00:57:08;;;;;;;11.75;7.85;;;;;;;-1.33;78.49;98160.22;5072675;28;20189;-56
2024/01/14 00:59:33;;;;;;;9.35;7.15;;;;;;;-1.24;78.19;98187.91;5072788;28;20269;-57
2024/01/14 01:01:58;;;;;;;7.90;5.78;;;;;;;-1.51;78.04;98174.22;5072610;28;20173;-56
2024/01/14 01:04:24;;;;;;;8.25;6.20;;;;;;;-1.74;79.12;98130.00;5072443;28;20173;-56
2024/01/14 01:06:50;;;;;;;6.85;5.85;;;;;;;-1.38;79.33;98165.44;5072561;28;20181;-57
2024/01/14 01:09:15;;;;;;;7.32;5.60;;;;;;;-1.35;79.07;98149.28;5072302;28;20173;-57
2024/01/14 01:11:41;;;;;;;10.68;6.25;;;;;;;-1.30;77.49;98127.19;5072264;28;20176;-56
2024/01/14 01:14:07;;;;;;;7.35;5.57;;;;;;;-1.79;78.08;98043.06;5072501;28;20650;-57
2024/01/14 01:16:33;;;;;;;7.82;5.70;;;;;;;-0.99;78.00;98201.63;5072271;28;20200;-57
2024/01/14 01:18:59;;;;;;;10.77;5.82;;;;;;;-1.36;78.35;98137.50;5072348;28;20675;-57
2024/01/14 01:21:24;;;;;;;7.93;5.40;;;;;;;-1.96;77.88;98035.91;5072097;28;20233;-57
2024/01/14 01:23:50;;;;;;;6.32;5.28;;;;;;;-0.99;78.41;98191.47;5072284;28;20195;-57
2024/01/14 01:26:15;;;;;;;8.18;5.07;;;;;;;-1.63;78.34;98067.16;5072250;28;20173;-57
2024/01/14 01:28:41;;;;;;;9.68;5.45;;;;;;;-0.90;78.08;98184.44;5072238;28;20172;-58
2024/01/14 01:31:06;;;;;;;10.38;6.05;;;;;;;-0.92;77.63;98190.44;5072133;28;20173;-58
2024/01/14 01:33:32;;;;;;;10.70;6.68;;;;;;;-1.54;77.90;98065.22;5029441;28;20186;-57
2024/01/14 01:35:57;;;;;;;8.60;5.80;;;;;;;-1.38;76.81;98069.03;5029752;28;20569;-57
2024/01/14 01:38:23;;;;;;;7.70;5.63;;;;;;;-1.26;76.99;98078.00;5029806;28;20187;-57
2024/01/14 01:40:48;;;;;;;6.05;5.22;;;;;;;-0.94;77.01;98126.19;5029856;28;20261;-57
2024/01/14 01:43:14;;;;;;;10.50;6.80;;;;;;;-1.17;77.24;98068.41;5029776;28;20673;-57
2024/01/14 01:45:39;;;;;;;10.57;7.20;;;;;;;-1.07;77.47;98099.47;5029777;28;20192;-57
2024/01/14 01:48:05;;;;;;;12.27;7.32;;;;;;;-1.17;78.17;98065.88;5029628;28;20209;-57
2024/01/14 01:50:34;;;;;;;13.32;7.50;;;;;;;-1.00;78.41;98106.84;5029667;28;20209;-57
2024/01/14 01:53:00;;;;;;;10.15;6.53;;;;;;;-1.16;78.34;98069.25;5029638;28;20186;-57
2024/01/14 01:55:25;;;;;;;9.85;6.78;;;;;;;-1.41;78.87;98053.06;4990113;28;20759;-57
2024/01/14 01:57:51;;;;;;;8.65;6.55;;;;;;;-0.72;78.24;98155.19;4990175;28;20638;-57
2024/01/14 02:00:18;;;;;;;11.65;7.32;;;;;;;-1.23;78.63;98078.72;4989710;28;20656;-57
2024/01/14 02:02:43;;;;;;;10.57;7.47;;;;;;;-1.15;78.30;98076.84;4990194;28;20230;-57
2024/01/14 02:05:10;;;;;;;11.73;7.70;;;;;;;-0.94;79.51;98142.22;4985379;28;20192;-57
2024/01/14 02:07:36;;;;;;;10.07;6.30;;;;;;;-1.61;78.35;98037.50;4990146;28;20187;-57
2024/01/14 02:10:02;;;;;;;9.65;6.50;;;;;;;-1.23;80.99;98128.69;4990145;28;20729;-57
2024/01/14 02:12:27;;;;;;;10.38;6.53;;;;;;;-1.71;81.02;98049.63;4951252;29;20186;-57
2024/01/14 02:14:53;;;;;;;13.20;7.72;;;;;;;-1.04;80.22;98134.91;4951330;29;20196;-57
2024/01/14 02:17:18;;;;;;;10.65;7.78;;;;;;;-1.01;79.90;98134.84;4953384;28;20318;-57
2024/01/14 02:19:44;;;;;;;12.05;7.40;;;;;;;-1.48;80.16;98071.81;4990138;28;20242;-57
2024/01/14 02:22:12;;;;;;;10.48;7.63;;;;;;;-1.88;80.92;98031.47;4989956;28;20184;-57
2024/01/14 02:24:38;;;;;;;11.25;7.57;;;;;;;-1.47;80.72;98084.47;4990265;28;20183;-57
2024/01/14 02:27:04;;;;;;;10.50;7.03;;;;;;;-1.33;80.75;98086.66;4989876;28;20218;-57
2024/01/14 02:29:30;;;;;;;9.02;6.85;;;;;;;-1.09;79.92;98119.81;4989948;28;20658;-57
2024/01/14 02:31:56;;;;;;;11.13;7.38;;;;;;;-1.41;80.15;98073.34;4989904;28;20188;-57
2024/01/14 02:34:22;;;;;;;10.30;8.05;;;;;;;-1.82;80.65;98020.34;4989873;28;20188;-57
2024/01/14 02:36:47;;;;;;;11.52;7.40;;;;;;;-1.18;80.80;98131.94;5035775;28;20283;-57
2024/01/14 02:39:12;;;;;;;8.63;6.80;;;;;;;-1.11;80.65;98124.09;5049399;28;20439;-57
2024/01/14 02:41:38;;;;;;;10.73;7.60;;;;;;;-1.34;82.87;98125.59;5048981;28;20251;-57
2024/01/14 02:44:03;;;;;;;10.05;6.40;;;;;;;-1.62;82.41;98081.50;5066369;28;20608;-57
2024/01/14 02:46:29;;;;;;;10.50;7.28;;;;;;;-1.85;82.18;98044.06;5075394;28;20179;-57
2024/01/14 02:48:55;;;;;;;10.63;7.43;;;;;;;-1.21;81.64;98116.75;5075275;28;20181;-57
2024/01/14 02:51:21;;;;;;;10.48;7.10;;;;;;;-1.78;81.00;98048.13;5075475;28;20169;-57
2024/01/14 02:53:47;;;;;;;9.70;6.93;;;;;;;-1.31;80.97;98100.97;5074814;28;20563;-57
2024/01/14 02:56:12;;;;;;;9.30;6.30;;;;;;;-1.92;81.46;98008.78;5075065;28;20197;-57
2024/01/14 02:58:38;;;;;;;7.93;5.90;;;;;;;-1.84;81.38;98011.94;5075076;28;20704;-57
2024/01/14 03:01:04;;;;;;;10.70;6.88;;;;;;;-1.83;81.84;98014.44;5074868;28;20189;-57
2024/01/14 03:03:29;;;;;;;10.60;7.60;;;;;;;-1.24;81.27;98111.78;5074956;28;20165;-57
2024/01/14 03:05:55;;;;;;;10.82;7.57;;;;;;;-1.27;81.38;98111.84;5074913;28;20239;-57
2024/01/14 03:08:21;;;;;;;13.98;9.13;;;;;;;-2.14;81.54;97960.34;5074793;28;20314;-56
2024/01/14 03:10:46;;;;;;;16.77;9.70;;;;;;;-1.88;81.72;98006.13;5032456;28;20183;-57
2024/01/14 03:13:16;;;;;;;16.75;10.43;;;;;;;-1.79;83.27;98058.28;5032489;28;20182;-57
2024/01/14 03:15:45;;;;;;;13.55;8.57;;;;;;;-1.51;83.69;98115.03;5032397;28;20696;-57
2024/01/14 03:18:13;;;;;;;14.68;9.20;;;;;;;-1.49;83.87;98105.69;5040410;28;20272;-57
2024/01/14 03:20:38;;;;;;;10.57;7.97;;;;;;;-1.54;83.78;98093.13;5052171;28;20196;-57
2024/01/14 03:23:04;;;;;;;13.63;7.72;;;;;;;-1.64;83.24;98060.44;5052226;28;20181;-57
2024/01/14 03:25:30;;;;;;;10.75;7.00;;;;;;;-1.75;82.98;98035.34;5052275;28;20200;-57
2024/01/14 03:27:55;;;;;;;9.90;7.20;;;;;;;-2.10;83.36;98006.72;5052171;28;20201;-57
2024/01/14 03:30:21;;;;;;;10.48;7.47;;;;;;;-1.80;83.06;98052.41;5052067;28;20776;-57
2024/01/14 03:32:46;;;;;;;11.48;8.18;;;;;;;-1.81;83.45;98048.19;5052009;28;20279;-57
2024/01/14 03:35:12;;;;;;;15.43;8.15;;;;;;;-1.47;82.96;98099.69;5051927;28;20189;-57
2024/01/14 03:37:37;;;;;;;15.32;10.18;;;;;;;-2.08;83.15;97994.81;5052013;28;20669;-57
2024/01/14 03:40:03;;;;;;;13.48;8.48;;;;;;;-1.67;82.70;98068.09;5051903;28;20229;-57
2024/01/14 03:42:29;;;;;;;11.13;8.05;;;;;;;-2.24;83.46;97986.78;5085714;28;20201;-57
2024/01/14 03:44:55;;;;;;;11.85;8.00;;;;;;;-1.69;83.87;98087.63;5094404;28;20176;-57
2024/01/14 03:47:20;;;;;;;14.40;8.52;;;;;;;-1.67;84.01;98088.41;5094379;28;20177;-57
2024/01/14 03:49:46;;;;;;;12.68;7.80;;;;;;;-1.81;83.17;98049.91;5094350;28;20195;-57
2024/01/14 03:52:11;;;;;;;14.20;8.45;;;;;;;-2.19;83.60;97974.00;5094377;28;20169;-57
2024/01/14 03:54:37;;;;;;;12.38;7.55;;;;;;;-2.62;83.21;97905.03;5094168;28;20172;-57
2024/01/14 03:57:02;;;;;;;11.63;7.88;;;;;;;-1.69;84.93;98067.31;5071396;28;20279;-57
2024/01/14 03:59:28;;;;;;;13.50;7.20;;;;;;;-1.62;84.58;98069.66;5071554;28;20189;-57
2024/01/14 04:01:53;;;;;;;12.43;7.65;;;;;;;-2.01;82.67;97986.19;5071531;28;20189;-57
2024/01/14 04:04:19;;;;;;;11.02;7.38;;;;;;;-1.55;83.55;98085.53;5071507;28;20188;-57
2024/01/14 04:06:44;;;;;;;12.77;8.15;;;;;;;-1.55;83.46;98060.19;5071431;28;20185;-57
2024/01/14 04:09:10;;;;;;;13.70;8.20;;;;;;;-1.79;83.21;98025.31;5071466;28;20185;-57
2024/01/14 04:11:36;;;;;;;10.23;6.63;;;;;;;-1.49;82.96;98071.00;5071256;28;20184;-57
2024/01/14 04:14:01;;;;;;;11.70;7.38;;;;;;;-1.51;83.28;98087.13;5071310;28;20177;-57
2024/01/14 04:16:35;;;;;;;11.25;7.38;;;;;;;-1.70;84.51;98080.88;5071337;28;20224;-58
2024/01/14 04:19:01;;;;;;;15.88;8.10;;;;;;;-2.17;83.91;97962.94;5071092;28;20256;-57
2024/01/14 04:21:26;;;;;;;11.25;8.13;;;;;;;-1.86;82.93;97999.31;5071154;28;20646;-58
2024/01/14 04:23:52;;;;;;;16.83;8.85;;;;;;;-2.10;83.10;97968.72;5031120;28;20678;-58
2024/01/14 04:26:21;;;;;;;16.73;8.75;;;;;;;-1.91;83.61;98005.38;5031145;28;20197;-58
2024/01/14 04:28:47;;;;;;;10.98;7.93;;;;;;;-1.45;83.58;98061.59;5047309;28;20640;-58
2024/01/14 04:31:13;;;;;;;15.25;8.23;;;;;;;-1.57;82.93;98036.56;5051077;28;20181;-58
2024/01/14 04:33:38;;;;;;;12.45;8.23;;;;;;;-1.92;82.35;97943.72;5050969;28;20277;-58
2024/01/14 04:36:04;;;;;;;11.95;7.65;;;;;;;-1.76;82.21;97982.16;5050911;28;20284;-57
2024/01/14 04:38:30;;;;;;;15.05;8.27;;;;;;;-1.24;81.73;98061.84;5050874;28;20197;-57
2024/01/14 04:40:55;;;;;;;9.88;7.30;;;;;;;-1.28;81.14;98054.38;5050835;28;20648;-58
2024/01/14 04:43:21;;;;;;;11.90;7.82;;;;;;;-1.63;81.79;98007.13;5050848;28;20182;-57
2024/01/14 04:45:46;;;;;;;14.00;8.02;;;;;;;-2.07;82.29;97956.78;5050739;28;20182;-57
2024/01/14 04:48:12;;;;;;;12.07;8.02;;;;;;;-1.58;84.35;98057.75;5050747;28;20240;-57
2024/01/14 04:50:39;;;;;;;12.63;7.63;;;;;;;-1.64;83.24;98030.00;5030571;28;20196;-58
2024/01/14 04:53:05;;;;;;;12.95;8.68;;;;;;;-1.85;83.18;98007.75;5030637;28;20194;-62
2024/01/14 04:55:31;;;;;;;12.77;8.65;;;;;;;-2.05;83.10;97972.78;5030456;28;20735;-58
2024/01/14 04:57:56;;;;;;;13.70;9.13;;;;;;;-1.44;83.24;98081.88;4991160;28;20192;-58
2024/01/14 05:00:22;;;;;;;14.55;9.35;;;;;;;-1.37;83.23;98087.59;4995864;28;20733;-58
2024/01/14 05:02:47;;;;;;;15.27;9.25;;;;;;;-1.76;83.20;98041.28;5030541;28;20194;-58
2024/01/14 05:05:14;;;;;;;16.88;9.73;;;;;;;-1.63;82.71;98041.81;5030483;28;20650;-58
2024/01/14 05:07:40;;;;;;;18.13;9.25;;;;;;;-1.88;81.43;98013.72;5029810;28;20193;-57
2024/01/14 05:10:06;;;;;;;16.55;9.35;;;;;;;-1.51;82.27;98102.34;5030390;28;20187;-57
2024/01/14 05:12:32;;;;;;;18.05;10.25;;;;;;;-2.02;83.58;98037.75;5030234;28;20218;-58
2024/01/14 05:14:57;;;;;;;15.63;9.63;;;;;;;-1.84;84.14;98080.38;5030318;28;20233;-58
2024/01/14 05:17:24;;;;;;;14.95;9.27;;;;;;;-1.69;84.44;98080.81;5029964;28;20217;-58
2024/01/14 05:19:50;;;;;;;11.73;8.77;;;;;;;-1.54;84.03;98072.81;4990720;28;20198;-57
2024/01/14 05:22:16;;;;;;;13.48;9.00;;;;;;;-1.66;83.08;98011.44;4990527;28;20633;-58
2024/01/14 05:24:42;;;;;;;17.05;10.02;;;;;;;-1.60;82.70;98026.50;4991007;28;20199;-58
2024/01/14 05:27:08;;;;;;;22.15;13.00;;;;;;;-1.51;82.62;98033.88;4990733;28;20180;-58
2024/01/14 05:29:33;;;;;;;37.47;19.73;;;;;;;-1.48;82.89;98036.31;5020605;28;20603;-57
2024/01/14 05:31:58;;;;;;;26.48;14.90;;;;;;;-1.34;82.77;98044.41;5029945;28;20186;-57
2024/01/14 05:34:24;;;;;;;25.42;13.00;;;;;;;-1.92;82.55;97946.25;5029910;28;20559;-57
2024/01/14 05:36:49;;;;;;;14.30;8.80;;;;;;;-1.83;82.40;97955.28;5029900;28;20715;-57
2024/01/14 05:39:15;;;;;;;14.93;8.85;;;;;;;-1.34;82.34;98059.63;5029869;28;20764;-57
2024/01/14 05:41:40;;;;;;;13.43;8.52;;;;;;;-1.85;82.88;97982.38;5029805;28;20178;-57
2024/01/14 05:44:06;;;;;;;14.82;9.85;;;;;;;-1.90;83.19;97986.75;5029789;28;20183;-57
2024/01/14 05:46:31;;;;;;;15.18;9.48;;;;;;;-1.46;83.49;98048.06;5029681;28;20198;-57
2024/01/14 05:48:56;;;;;;;17.38;10.55;;;;;;;-1.32;82.97;98055.31;5029679;28;20181;-58
2024/01/14 05:51:22;;;;;;;17.42;10.88;;;;;;;-1.48;82.17;98042.22;5074726;28;20188;-58
2024/01/14 05:53:48;;;;;;;15.20;9.35;;;;;;;-1.38;82.51;98063.09;5090004;28;20184;-58
2024/01/14 05:56:24;;;;;;;17.40;10.10;;;;;;;-1.58;84.08;98040.00;5082853;28;20220;-57
2024/01/14 05:58:49;;;;;;;16.15;10.27;;;;;;;-2.24;84.15;97930.22;5091894;28;20206;-58
2024/01/14 06:01:15;;;;;;;18.08;10.00;;;;;;;-1.59;84.63;98028.19;5091852;28;20177;-58
2024/01/14 06:03:40;;;;;;;16.88;10.05;;;;;;;-1.52;84.25;98032.22;5091883;28;20172;-58
2024/01/14 06:06:06;;;;;;;20.02;10.02;;;;;;;-2.13;84.51;97930.75;5091794;28;20618;-58
2024/01/14 06:08:32;;;;;;;19.48;11.30;;;;;;;-1.53;84.19;98030.56;5091731;28;20176;-58
2024/01/14 06:10:57;;;;;;;15.88;9.50;;;;;;;-1.54;84.26;98011.13;5091615;28;20180;-58
2024/01/14 06:13:23;;;;;;;16.13;9.77;;;;;;;-1.58;83.81;97989.28;5091743;28;20172;-58
2024/01/14 06:15:48;;;;;;;21.77;10.95;;;;;;;-1.54;84.22;98046.63;5091654;28;20219;-59
2024/01/14 06:18:13;;;;;;;15.75;9.73;;;;;;;-2.13;85.09;97945.97;5091589;28;20248;-59
2024/01/14 06:20:39;;;;;;;15.13;9.55;;;;;;;-2.15;85.13;97922.38;5094906;28;20172;-59
2024/01/14 06:23:04;;;;;;;16.20;9.40;;;;;;;-1.89;85.45;97952.91;5095978;28;20173;-59
2024/01/14 06:25:30;;;;;;;16.88;9.98;;;;;;;-1.41;85.10;98009.94;5095915;28;20177;-58
2024/01/14 06:27:55;;;;;;;17.45;10.45;;;;;;;-1.28;84.63;98034.06;5095822;28;20179;-58
2024/01/14 06:30:21;;;;;;;20.73;11.63;;;;;;;-1.70;84.78;97990.41;5095771;28;20646;-58
2024/01/14 06:32:46;;;;;;;18.55;11.02;;;;;;;-1.81;85.00;97978.91;5095615;28;20180;-59
2024/01/14 06:35:12;;;;;;;21.35;12.43;;;;;;;-2.06;85.29;97943.25;5095822;28;20211;-59
2024/01/14 06:37:37;;;;;;;19.10;11.18;;;;;;;-1.96;85.81;97964.94;5095533;28;20172;-58
2024/01/14 06:40:05;;;;;;;18.63;11.45;;;;;;;-2.01;86.31;97938.03;5095710;28;20176;-58
2024/01/14 06:42:30;;;;;;;21.58;12.32;;;;;;;-1.36;86.68;98030.94;5095475;28;20526;-58
2024/01/14 06:44:56;;;;;;;19.25;12.90;;;;;;;-1.26;86.60;98038.22;5095636;28;20203;-58
2024/01/14 06:47:21;;;;;;;26.17;16.52;;;;;;;-1.26;86.87;98056.00;5095321;28;20631;-58
2024/01/14 06:49:46;;;;;;;26.75;17.77;;;;;;;-1.68;87.11;97982.78;5095540;28;20200;-58
2024/01/14 06:52:12;;;;;;;27.27;16.10;;;;;;;-1.51;87.13;98000.91;5095445;28;20175;-58
2024/01/14 06:54:39;;;;;;;33.40;19.80;;;;;;;-1.21;87.34;98048.25;5095372;28;20199;-58
2024/01/14 06:57:04;;;;;;;42.25;23.20;;;;;;;-1.14;87.13;98042.13;5094810;28;20589;-58
2024/01/14 06:59:30;;;;;;;45.28;24.95;;;;;;;-0.90;86.61;98071.88;5095046;28;20176;-57
2024/01/14 07:01:55;;;;;;;51.58;28.17;;;;;;;-1.36;86.40;97987.81;5072337;28;20211;-58
2024/01/14 07:04:21;;;;;;;73.00;36.22;;;;;;;-1.04;86.49;98028.31;5072553;28;20200;-57
2024/01/14 07:06:46;;;;;;;66.57;32.42;;;;;;;-1.43;86.76;97948.25;5072438;28;20185;-57
2024/01/14 07:09:12;;;;;;;65.50;33.35;;;;;;;-0.90;86.80;98027.03;5072506;28;20634;-57
2024/01/14 07:11:38;;;;;;;62.50;29.80;;;;;;;-1.12;86.91;97965.06;5072405;28;20187;-58
2024/01/14 07:14:04;;;;;;;86.88;37.13;;;;;;;-0.58;86.75;98041.31;5072414;28;20261;-58
2024/01/14 07:16:30;;;;;;;94.32;40.97;;;;;;;-0.63;86.18;98005.03;5072168;28;20224;-58
2024/01/14 07:18:55;;;;;;;86.82;37.33;;;;;;;-0.43;86.21;98017.97;5072082;28;20774;-58
2024/01/14 07:21:22;;;;;;;62.97;29.77;;;;;;;-0.56;85.69;97973.47;5072159;28;20275;-58
2024/01/14 07:23:48;;;;;;;54.03;27.40;;;;;;;-0.41;83.29;97988.25;5072271;28;20211;-57
2024/01/14 07:26:15;;;;;;;58.03;27.42;;;;;;;-0.41;82.39;97947.59;5072177;28;20222;-58
2024/01/14 07:28:41;;;;;;;51.10;28.73;;;;;;;-0.17;82.12;97969.66;5072122;28;20323;-57
2024/01/14 07:31:07;;;;;;;52.50;30.05;;;;;;;-0.39;81.58;97915.34;5071583;28;20220;-58
2024/01/14 07:33:32;;;;;;;53.42;27.92;;;;;;;-0.08;80.42;97928.69;5088965;28;20234;-57
2024/01/14 07:35:57;;;;;;;50.63;28.52;;;;;;;-0.08;79.89;97918.53;5094488;28;20198;-58
2024/01/14 07:38:23;;;;;;;48.42;27.00;;;;;;;0.09;79.39;97938.22;5094504;28;20388;-58
2024/01/14 07:40:48;;;;;;;48.90;28.15;;;;;;;0.56;79.32;98018.81;5094750;28;20175;-58
2024/01/14 07:43:14;;;;;;;94.72;39.30;;;;;;;0.51;79.09;98005.41;5094370;28;20188;-57
2024/01/14 07:45:39;;;;;;;60.97;31.70;;;;;;;0.42;79.86;98008.25;5094397;28;20187;-58
2024/01/14 07:48:05;;;;;;;57.13;32.45;;;;;;;0.59;79.87;98035.69;5093571;28;20602;-58
2024/01/14 07:50:30;;;;;;;53.60;31.65;;;;;;;0.13;79.38;97929.59;5094321;28;20173;-58
2024/01/14 07:52:56;;;;;;;50.55;27.65;;;;;;;0.80;79.45;98029.81;5094270;28;20172;-59
2024/01/14 07:55:21;;;;;;;50.70;26.80;;;;;;;0.82;78.26;98003.41;5094211;28;20173;-58
2024/01/14 07:57:47;;;;;;;50.08;27.02;;;;;;;0.93;78.62;98014.03;5094205;28;20177;-58
2024/01/14 08:00:13;;;;;;;47.75;27.13;;;;;;;0.78;77.97;97956.03;5094543;28;20538;-58
2024/01/14 08:02:38;;;;;;;44.58;26.27;;;;;;;1.21;77.56;97999.41;5094247;28;20173;-58
2024/01/14 08:05:04;;;;;;;44.53;25.23;;;;;;;1.10;77.08;97973.50;5094395;28;20677;-58
2024/01/14 08:07:30;;;;;;;56.65;28.35;;;;;;;0.98;76.41;97948.50;5093825;28;20180;-58
2024/01/14 08:09:56;;;;;;;50.90;26.15;;;;;;;0.62;76.41;97883.69;5094040;28;20173;-58
2024/01/14 08:12:22;;;;;;;62.35;30.17;;;;;;;1.46;76.13;98002.66;5093608;28;20560;-59
2024/01/14 08:14:48;;;;;;;49.92;27.35;;;;;;;1.20;75.59;97935.75;5093653;28;20176;-59
2024/01/14 08:17:15;;;;;;;50.63;24.13;;;;;;;0.85;75.03;97859.88;5093657;28;20196;-59
2024/01/14 08:19:41;;;;;;;41.47;21.80;;;;;;;1.62;74.76;97973.13;5093832;28;20221;-59
2024/01/14 08:22:06;;;;;;;40.58;20.95;;;;;;;1.76;73.95;97972.56;5093793;28;20259;-59
2024/01/14 08:24:33;;;;;;;39.60;21.70;;;;;;;2.03;73.58;98002.88;5093744;28;20539;-61
2024/01/14 08:26:59;;;;;;;38.83;21.90;;;;;;;2.14;72.91;97993.06;5070867;28;20270;-59
2024/01/14 08:29:24;;;;;;;35.40;20.60;;;;;;;1.81;71.55;97910.28;5070977;28;20259;-59
2024/01/14 08:31:50;;;;;;;38.60;19.23;;;;;;;2.38;71.27;97991.16;5011097;28;20202;-59
2024/01/14 08:34:15;;;;;;;39.17;20.45;;;;;;;2.08;70.94;97937.19;5011164;28;20702;-59
2024/01/14 08:36:41;;;;;;;38.20;20.70;;;;;;;2.37;70.95;97971.66;4991239;28;20215;-59
2024/01/14 08:39:06;;;;;;;33.30;19.35;;;;;;;2.08;70.77;97926.13;4991526;28;20196;-60
2024/01/14 08:41:31;;;;;;;33.47;19.35;;;;;;;2.52;70.60;97989.69;4990641;28;20220;-59
2024/01/14 08:43:59;;;;;;;32.42;17.80;;;;;;;2.49;70.65;97959.19;4990036;28;20580;-59
2024/01/14 08:46:25;;;;;;;28.17;16.10;;;;;;;2.47;70.17;97934.63;4990533;28;20199;-59
2024/01/14 08:48:50;;;;;;;27.13;16.88;;;;;;;2.17;70.67;97884.94;4991541;28;20695;-59
2024/01/14 08:51:16;;;;;;;32.22;21.17;;;;;;;2.84;70.36;97978.91;4991583;28;20277;-61
2024/01/14 08:53:41;;;;;;;37.17;20.48;;;;;;;2.67;70.53;97945.63;4991256;28;20195;-59
2024/01/14 08:56:07;;;;;;;31.92;18.05;;;;;;;2.80;69.42;97941.59;4991445;28;20599;-59
2024/01/14 08:58:32;;;;;;;25.48;15.35;;;;;;;2.56;68.79;97894.19;5005685;28;20183;-58
2024/01/14 09:00:58;;;;;;;25.38;15.45;;;;;;;3.25;68.35;97993.19;5010965;28;20182;-60
2024/01/14 09:03:24;;;;;;;26.63;15.82;;;;;;;3.15;68.33;97965.56;5025630;28;20183;-63
2024/01/14 09:05:49;;;;;;;25.80;14.02;;;;;;;2.83;68.92;97892.94;5030497;28;20270;-58
2024/01/14 09:08:16;;;;;;;24.77;14.68;;;;;;;2.89;68.72;97892.66;5059875;28;20263;-58
2024/01/14 09:10:41;;;;;;;25.55;16.08;;;;;;;3.58;68.15;97991.59;5070205;28;20512;-58
2024/01/14 09:13:07;;;;;;;23.63;14.88;;;;;;;3.63;67.81;97984.53;5070263;28;20181;-58
2024/01/14 09:15:33;;;;;;;24.55;14.45;;;;;;;3.06;68.10;97895.25;5070112;28;20177;-58
2024/01/14 09:17:59;;;;;;;23.42;14.20;;;;;;;3.40;68.65;97943.91;5070015;28;20711;-58
2024/01/14 09:20:24;;;;;;;22.13;14.80;;;;;;;3.71;67.81;97977.31;5070011;28;20197;-58
2024/01/14 09:22:50;;;;;;;29.25;16.08;;;;;;;3.66;68.02;97956.25;5070095;28;20255;-59
2024/01/14 09:25:15;;;;;;;22.35;14.98;;;;;;;3.36;67.72;97891.25;5064822;28;20239;-59
2024/01/14 09:27:40;;;;;;;26.48;15.02;;;;;;;3.24;68.13;97858.59;5069988;28;20200;-59
2024/01/14 09:30:07;;;;;;;27.63;16.90;;;;;;;3.44;67.84;97885.78;5070020;28;20251;-58
2024/01/14 09:32:33;;;;;;;26.10;17.33;;;;;;;3.30;67.77;97868.53;5069972;28;20212;-58
2024/01/14 09:34:59;;;;;;;24.58;15.15;;;;;;;3.17;68.04;97841.06;5069970;28;20212;-58
2024/01/14 09:37:24;;;;;;;25.70;16.08;;;;;;;3.69;68.55;97933.09;5069967;28;20240;-59
2024/01/14 09:39:50;;;;;;;30.83;21.90;;;;;;;3.30;68.80;97853.19;5069957;28;20203;-58
2024/01/14 09:42:24;;;;;;;37.38;21.80;;;;;;;3.25;69.02;97846.63;5069771;28;20177;-59
2024/01/14 09:45:02;;;;;;;29.75;18.08;;;;;;;3.12;69.01;97818.31;5069802;28;20199;-59
2024/01/14 09:47:30;;;;;;;28.00;17.27;;;;;;;3.40;68.78;97848.47;5049675;28;20703;-59
2024/01/14 09:49:58;;;;;;;31.52;19.98;;;;;;;3.49;68.90;97836.03;5049671;28;20597;-58
2024/01/14 09:52:24;;;;;;;31.77;19.90;;;;;;;4.01;68.82;97888.81;5049705;28;20189;-58
2024/01/14 09:54:50;;;;;;;31.33;18.55;;;;;;;3.59;68.79;97809.13;4990430;28;20306;-58
2024/01/14 09:57:18;;;;;;;30.17;17.02;;;;;;;3.82;68.27;97846.31;5001946;28;20768;-59
2024/01/14 09:59:44;;;;;;;28.55;17.67;;;;;;;4.04;68.11;97888.66;4971232;28;20230;-58
2024/01/14 10:02:13;;;;;;;36.08;19.85;;;;;;;4.05;68.31;97886.91;4970554;28;20193;-59
2024/01/14 10:04:45;;;;;;;29.20;18.58;;;;;;;3.94;69.05;97884.91;4970683;28;20236;-58
2024/01/14 10:07:12;;;;;;;32.10;19.08;;;;;;;3.53;68.84;97801.75;4970656;28;20674;-58
2024/01/14 10:09:41;;;;;;;28.23;18.23;;;;;;;3.98;68.80;97853.13;4970509;28;20193;-59
2024/01/14 10:12:10;;;;;;;35.13;18.30;;;;;;;4.36;68.26;97890.38;4970530;28;20177;-58
2024/01/14 10:14:36;;;;;;;29.10;17.50;;;;;;;4.15;68.49;97845.41;4970432;28;20736;-58
2024/01/14 10:17:02;;;;;;;29.73;18.52;;;;;;;4.45;68.16;97869.44;4970408;28;20208;-58
2024/01/14 10:19:29;;;;;;;32.88;19.05;;;;;;;4.50;68.36;97874.31;4987995;28;20203;-58
2024/01/14 10:21:55;;;;;;;28.92;18.58;;;;;;;4.48;68.16;97855.63;5003662;28;20191;-58
2024/01/14 10:24:21;;;;;;;28.40;18.52;;;;;;;4.06;67.82;97764.00;5009412;28;20195;-59
2024/01/14 10:26:56;;;;;;;32.95;18.40;;;;;;;4.39;67.95;97810.84;5027358;28;20277;-58
2024/01/14 10:29:22;;;;;;;38.50;19.35;;;;;;;4.43;68.27;97801.28;5029311;28;20170;-58
2024/01/14 10:31:50;;;;;;;32.00;17.70;;;;;;;4.13;68.00;97749.13;5047944;28;20321;-58
2024/01/14 10:34:17;;;;;;;54.80;26.40;;;;;;;4.66;68.67;97852.91;5049045;28;20190;-57
2024/01/14 10:36:43;;;;;;;34.53;19.55;;;;;;;4.50;68.51;97815.38;5048192;28;20213;-57
2024/01/14 10:39:10;;;;;;;30.30;17.80;;;;;;;4.61;68.51;97828.44;5034372;28;20680;-57
2024/01/14 10:41:36;;;;;;;33.22;17.98;;;;;;;4.40;68.82;97781.78;5049088;28;20185;-58
2024/01/14 10:44:02;;;;;;;36.55;20.45;;;;;;;4.68;69.13;97817.78;5049151;28;20280;-58
2024/01/14 10:46:32;;;;;;;30.48;18.67;;;;;;;4.50;68.98;97785.47;5049062;28;20193;-58
2024/01/14 10:49:08;;;;;;;26.23;16.65;;;;;;;4.78;68.95;97811.22;5048754;28;20181;-59
2024/01/14 10:51:42;;;;;;;26.00;17.00;;;;;;;4.99;68.19;97829.72;5048930;28;20225;-58
2024/01/14 10:54:26;;;;;;;27.15;16.08;;;;;;;5.07;68.06;97833.50;5049191;28;20169;-58
2024/01/14 10:57:20;;;;;;;28.83;17.45;;;;;;;4.97;67.45;97788.81;5049052;28;20241;-58
2024/01/14 10:59:48;;;;;;;28.75;17.63;;;;;;;4.80;67.06;97737.69;5048542;28;20202;-59
2024/01/14 11:02:17;;;;;;;28.98;17.70;;;;;;;5.29;67.22;97803.19;5049085;28;20188;-58
2024/01/14 11:04:45;;;;;;;33.92;18.17;;;;;;;5.04;66.64;97746.53;5049133;28;20185;-58
2024/01/14 11:07:12;;;;;;;25.83;15.90;;;;;;;5.52;66.79;97818.09;5052727;28;20673;-58
2024/01/14 11:09:40;;;;;;;30.73;17.27;;;;;;;5.17;66.89;97746.66;5052634;28;20626;-59
2024/01/14 11:12:17;;;;;;;28.88;17.02;;;;;;;5.21;66.70;97727.63;5052434;28;20189;-58
2024/01/14 11:15:27;;;;;;;27.08;17.05;;;;;;;5.90;65.55;97819.25;5052632;28;20188;-58
2024/01/14 11:18:04;;;;;;;32.58;19.35;;;;;;;5.79;64.64;97819.06;5032443;28;20222;-58
2024/01/14 11:20:34;;;;;;;31.45;19.45;;;;;;;5.64;65.34;97784.03;5032669;28;20529;-58